createdAt,value
2017-04-01T00:00:10.932Z,16.51
2017-04-01T00:00:25.038Z,16.49
2017-04-01T00:00:39.230Z,16.44
2017-04-01T00:00:53.366Z,16.52
2017-04-01T00:01:07.567Z,16.48
2017-04-01T00:01:21.742Z,16.44
2017-04-01T00:01:35.920Z,16.47
2017-04-01T00:01:50.028Z,16.4
2017-04-01T00:02:04.102Z,16.57
2017-04-01T00:02:18.245Z,16.57
2017-04-01T00:02:32.387Z,16.54
2017-04-01T00:02:46.542Z,16.57
2017-04-01T00:03:00.696Z,16.57
2017-04-01T00:03:14.807Z,16.51
2017-04-01T00:03:28.938Z,16.58
2017-04-01T00:03:43.162Z,16.54
2017-04-01T00:03:57.393Z,16.55
2017-04-01T00:04:11.520Z,16.58
2017-04-01T00:04:25.606Z,16.58
2017-04-01T00:04:40.016Z,16.57
2017-04-01T00:04:54.167Z,16.55
2017-04-01T00:05:08.320Z,16.62
2017-04-01T00:05:22.452Z,16.62
2017-04-01T00:05:36.657Z,16.57
2017-04-01T00:05:50.826Z,16.62
2017-04-01T00:06:05.003Z,16.58
2017-04-01T00:06:19.125Z,16.58
2017-04-01T00:06:33.330Z,16.59
2017-04-01T00:06:47.684Z,16.63
2017-04-01T00:07:01.787Z,16.62
2017-04-01T00:07:16.018Z,16.67
2017-04-01T00:07:30.163Z,16.67
2017-04-01T00:07:44.304Z,16.63
2017-04-01T00:07:58.444Z,16.65
2017-04-01T00:08:12.621Z,16.7
2017-04-01T00:08:26.757Z,16.7
2017-04-01T00:08:40.938Z,16.74
2017-04-01T00:08:55.028Z,16.74
2017-04-01T00:09:09.181Z,16.73
2017-04-01T00:09:23.345Z,16.73
2017-04-01T00:09:37.464Z,16.76
2017-04-01T00:09:51.546Z,16.66
2017-04-01T00:10:05.707Z,16.72
2017-04-01T00:10:19.895Z,16.63
2017-04-01T00:10:34.011Z,16.69
2017-04-01T00:10:48.190Z,16.76
2017-04-01T00:11:02.350Z,16.74
2017-04-01T00:11:16.530Z,16.76
2017-04-01T00:11:30.707Z,16.74
2017-04-01T00:11:45.093Z,16.74
2017-04-01T00:11:59.297Z,16.76
2017-04-01T00:12:13.442Z,16.69
2017-04-01T00:12:27.618Z,16.76
2017-04-01T00:12:41.726Z,16.76
2017-04-01T00:12:55.936Z,16.8
2017-04-01T00:13:10.078Z,16.87
2017-04-01T00:13:24.270Z,16.76
2017-04-01T00:13:38.473Z,16.82
2017-04-01T00:13:52.626Z,16.73
2017-04-01T00:14:06.785Z,16.81
2017-04-01T00:14:20.947Z,16.76
2017-04-01T00:14:35.159Z,16.8
2017-04-01T00:14:49.283Z,16.76
2017-04-01T00:15:03.431Z,16.7
2017-04-01T00:15:17.603Z,16.73
2017-04-01T00:15:31.769Z,16.74
2017-04-01T00:15:45.899Z,16.81
2017-04-01T00:16:00.030Z,16.74
2017-04-01T00:16:14.217Z,16.73
2017-04-01T00:16:28.399Z,16.76
2017-04-01T00:16:42.543Z,16.7
2017-04-01T00:16:56.758Z,16.73
2017-04-01T00:17:10.887Z,16.74
2017-04-01T00:17:25.051Z,16.69
2017-04-01T00:17:39.810Z,16.7
2017-04-01T00:17:53.966Z,16.7
2017-04-01T00:18:08.091Z,16.74
2017-04-01T00:18:22.261Z,16.69
2017-04-01T00:18:36.454Z,16.73
2017-04-01T00:18:50.568Z,16.74
2017-04-01T00:19:04.676Z,16.65
2017-04-01T00:19:18.769Z,16.74
2017-04-01T00:19:32.894Z,16.7
2017-04-01T00:19:47.246Z,16.77
2017-04-01T00:20:01.422Z,16.7
2017-04-01T00:20:15.472Z,16.72
2017-04-01T00:20:29.622Z,16.73
2017-04-01T00:20:43.722Z,16.73
2017-04-01T00:20:57.841Z,16.74
2017-04-01T00:21:11.938Z,16.66
2017-04-01T00:21:26.057Z,16.67
2017-04-01T00:21:40.256Z,16.74
2017-04-01T00:21:54.439Z,16.66
2017-04-01T00:22:08.614Z,16.7
2017-04-01T00:22:22.789Z,16.57
2017-04-01T00:22:36.968Z,16.74
2017-04-01T00:22:51.193Z,16.73
2017-04-01T00:23:05.337Z,16.69
2017-04-01T00:23:19.511Z,16.63
2017-04-01T00:23:33.672Z,16.69
2017-04-01T00:23:47.800Z,16.77
2017-04-01T00:24:01.946Z,16.66
2017-04-01T00:24:16.067Z,16.69
2017-04-01T00:24:30.242Z,16.65
2017-04-01T00:24:44.417Z,16.67
2017-04-01T00:24:58.572Z,16.66
2017-04-01T00:25:12.712Z,16.69
2017-04-01T00:25:26.858Z,16.65
2017-04-01T00:25:41.062Z,16.7
2017-04-01T00:25:55.284Z,16.66
2017-04-01T00:26:09.365Z,16.63
2017-04-01T00:26:23.510Z,16.65
2017-04-01T00:26:37.643Z,16.7
2017-04-01T00:26:51.792Z,16.7
2017-04-01T00:27:05.924Z,16.66
2017-04-01T00:27:20.094Z,16.69
2017-04-01T00:27:34.279Z,16.69
2017-04-01T00:27:48.486Z,16.69
2017-04-01T00:28:02.616Z,16.66
2017-04-01T00:28:16.759Z,16.69
2017-04-01T00:28:30.868Z,16.67
2017-04-01T00:28:45.067Z,16.66
2017-04-01T00:28:59.219Z,16.66
2017-04-01T00:29:13.461Z,16.66
2017-04-01T00:29:27.723Z,16.8
2017-04-01T00:29:41.861Z,16.77
2017-04-01T00:29:56.031Z,16.67
2017-04-01T00:30:10.221Z,16.7
2017-04-01T00:30:24.356Z,16.73
2017-04-01T00:30:38.530Z,16.73
2017-04-01T00:30:52.667Z,16.65
2017-04-01T00:31:06.845Z,16.69
2017-04-01T00:31:20.994Z,16.69
2017-04-01T00:31:35.158Z,16.65
2017-04-01T00:31:49.394Z,16.73
2017-04-01T00:32:03.529Z,16.76
2017-04-01T00:32:17.680Z,16.66
2017-04-01T00:32:31.833Z,16.7
2017-04-01T00:32:45.997Z,16.67
2017-04-01T00:33:00.195Z,16.66
2017-04-01T00:33:14.379Z,16.77
2017-04-01T00:33:28.447Z,16.67
2017-04-01T00:33:42.575Z,16.7
2017-04-01T00:33:56.714Z,16.69
2017-04-01T00:34:10.922Z,16.67
2017-04-01T00:34:25.060Z,16.76
2017-04-01T00:34:39.229Z,16.76
2017-04-01T00:34:53.623Z,16.73
2017-04-01T00:35:07.769Z,16.73
2017-04-01T00:35:21.938Z,16.69
2017-04-01T00:35:36.133Z,16.72
2017-04-01T00:35:50.311Z,16.69
2017-04-01T00:36:04.502Z,16.74
2017-04-01T00:36:18.652Z,16.77
2017-04-01T00:36:32.858Z,16.7
2017-04-01T00:36:47.053Z,16.77
2017-04-01T00:37:01.307Z,16.73
2017-04-01T00:37:19.153Z,16.82
2017-04-01T00:37:34.526Z,16.74
2017-04-01T00:37:48.713Z,16.85
2017-04-01T00:38:03.104Z,16.84
2017-04-01T00:38:17.965Z,16.77
2017-04-01T00:38:32.214Z,16.73
2017-04-01T00:38:46.413Z,16.77
2017-04-01T00:39:00.814Z,16.76
2017-04-01T00:39:14.925Z,16.8
2017-04-01T00:39:29.125Z,16.74
2017-04-01T00:39:43.300Z,16.77
2017-04-01T00:39:59.175Z,16.76
2017-04-01T00:40:13.800Z,16.73
2017-04-01T00:40:28.076Z,16.74
2017-04-01T00:40:42.394Z,16.72
2017-04-01T00:40:56.795Z,16.84
2017-04-01T00:41:11.322Z,16.77
2017-04-01T00:41:25.529Z,16.73
2017-04-01T00:41:39.709Z,16.72
2017-04-01T00:41:53.891Z,16.8
2017-04-01T00:42:11.640Z,16.8
2017-04-01T00:42:25.772Z,16.81
2017-04-01T00:42:40.000Z,16.74
2017-04-01T00:42:54.259Z,16.73
2017-04-01T00:43:08.439Z,16.76
2017-04-01T00:43:22.897Z,16.69
2017-04-01T00:43:37.093Z,16.77
2017-04-01T00:43:55.383Z,16.84
2017-04-01T00:44:09.588Z,16.84
2017-04-01T00:44:23.789Z,16.8
2017-04-01T00:44:38.868Z,16.74
2017-04-01T00:44:53.047Z,16.72
2017-04-01T00:45:07.222Z,16.81
2017-04-01T00:45:21.474Z,16.77
2017-04-01T00:45:35.713Z,16.77
2017-04-01T00:45:49.856Z,16.74
2017-04-01T00:46:04.231Z,16.74
2017-04-01T00:46:18.330Z,16.81
2017-04-01T00:46:32.468Z,16.66
2017-04-01T00:46:46.678Z,16.72
2017-04-01T00:47:00.988Z,16.69
2017-04-01T00:47:15.170Z,16.73
2017-04-01T00:47:29.773Z,16.74
2017-04-01T00:47:43.986Z,16.74
2017-04-01T00:47:58.236Z,16.8
2017-04-01T00:48:12.399Z,16.76
2017-04-01T00:48:26.494Z,16.76
2017-04-01T00:48:40.672Z,16.74
2017-04-01T00:48:54.888Z,16.65
2017-04-01T00:49:09.182Z,16.67
2017-04-01T00:49:23.625Z,16.72
2017-04-01T00:49:37.735Z,16.72
2017-04-01T00:50:03.451Z,16.66
2017-04-01T00:50:22.681Z,16.77
2017-04-01T00:50:37.138Z,16.66
2017-04-01T00:50:51.346Z,16.74
2017-04-01T00:51:05.529Z,16.74
2017-04-01T00:51:19.717Z,16.73
2017-04-01T00:51:33.947Z,16.76
2017-04-01T00:51:48.116Z,16.67
2017-04-01T00:52:02.542Z,16.67
2017-04-01T00:52:16.701Z,16.73
2017-04-01T00:52:30.916Z,16.74
2017-04-01T00:52:45.068Z,16.7
2017-04-01T00:52:59.169Z,16.74
2017-04-01T00:53:13.326Z,16.66
2017-04-01T00:53:27.525Z,16.7
2017-04-01T00:53:41.771Z,16.73
2017-04-01T00:53:55.906Z,16.67
2017-04-01T00:54:10.036Z,16.73
2017-04-01T00:54:24.241Z,16.7
2017-04-01T00:54:38.417Z,16.62
2017-04-01T00:54:52.897Z,16.73
2017-04-01T00:55:07.114Z,16.73
2017-04-01T00:55:21.261Z,16.63
2017-04-01T00:55:36.581Z,16.67
2017-04-01T00:55:50.789Z,16.74
2017-04-01T00:56:05.222Z,16.72
2017-04-01T00:56:19.651Z,16.74
2017-04-01T00:56:33.832Z,16.72
2017-04-01T00:56:48.066Z,16.63
2017-04-01T00:57:02.253Z,16.66
2017-04-01T00:57:16.517Z,16.72
2017-04-01T00:57:30.739Z,16.69
2017-04-01T00:57:44.907Z,16.66
2017-04-01T00:57:59.096Z,16.62
2017-04-01T00:58:13.249Z,16.66
2017-04-01T00:58:27.339Z,16.67
2017-04-01T00:58:41.528Z,16.7
2017-04-01T00:58:55.686Z,16.62
2017-04-01T00:59:09.897Z,16.66
2017-04-01T00:59:24.091Z,16.67
2017-04-01T00:59:38.294Z,16.72
2017-04-01T00:59:52.818Z,16.73
2017-04-01T01:00:06.986Z,16.69
2017-04-01T01:00:21.299Z,16.73
2017-04-01T01:00:35.588Z,16.59
2017-04-01T01:00:49.777Z,16.76
2017-04-01T01:01:03.884Z,16.72
2017-04-01T01:01:18.068Z,16.72
2017-04-01T01:01:32.338Z,16.67
2017-04-01T01:01:46.763Z,16.69
2017-04-01T01:02:01.146Z,16.69
2017-04-01T01:02:15.272Z,16.69
2017-04-01T01:02:29.446Z,16.76
2017-04-01T01:02:43.694Z,16.73
2017-04-01T01:02:57.945Z,16.72
2017-04-01T01:03:12.246Z,16.69
2017-04-01T01:03:26.459Z,16.72
2017-04-01T01:03:40.656Z,16.67
2017-04-01T01:03:55.079Z,16.69
2017-04-01T01:04:09.305Z,16.69
2017-04-01T01:04:23.429Z,16.67
2017-04-01T01:04:37.576Z,16.66
2017-04-01T01:04:54.874Z,16.67
2017-04-01T01:05:09.363Z,16.69
2017-04-01T01:05:23.474Z,16.72
2017-04-01T01:05:37.687Z,16.69
2017-04-01T01:05:51.826Z,16.59
2017-04-01T01:06:06.074Z,16.66
2017-04-01T01:06:21.280Z,16.67
2017-04-01T01:06:38.394Z,16.7
2017-04-01T01:06:53.531Z,16.65
2017-04-01T01:07:09.389Z,16.69
2017-04-01T01:07:39.254Z,16.65
2017-04-01T01:07:53.445Z,16.63
2017-04-01T01:08:07.661Z,16.69
2017-04-01T01:08:21.841Z,16.69
2017-04-01T01:08:35.984Z,16.62
2017-04-01T01:08:50.879Z,16.65
2017-04-01T01:09:08.906Z,16.66
2017-04-01T01:09:32.397Z,16.66
2017-04-01T01:09:46.627Z,16.62
2017-04-01T01:10:00.818Z,16.72
2017-04-01T01:10:23.509Z,16.59
2017-04-01T01:10:37.722Z,16.55
2017-04-01T01:10:52.024Z,16.62
2017-04-01T01:11:06.262Z,16.65
2017-04-01T01:11:27.582Z,16.66
2017-04-01T01:11:51.629Z,16.62
2017-04-01T01:12:10.043Z,16.65
2017-04-01T01:12:39.128Z,16.67
2017-04-01T01:12:53.299Z,16.59
2017-04-01T01:13:47.569Z,16.54
2017-04-01T01:14:01.773Z,16.66
2017-04-01T01:14:30.025Z,16.55
2017-04-01T01:15:57.484Z,16.62
2017-04-01T01:16:14.698Z,16.66
2017-04-01T01:16:42.390Z,16.57
2017-04-01T01:16:58.517Z,16.65
2017-04-01T01:17:54.355Z,16.55
2017-04-01T01:18:48.215Z,16.54
2017-04-01T01:21:57.170Z,16.62
2017-04-01T01:22:57.980Z,16.55
2017-04-01T01:23:40.452Z,16.54
2017-04-01T01:23:57.562Z,16.65
2017-04-01T01:25:34.038Z,16.57
2017-04-01T01:25:48.441Z,16.66
2017-04-01T01:26:02.695Z,16.54
2017-04-01T01:26:23.235Z,16.57
2017-04-01T01:27:03.350Z,16.58
2017-04-01T01:27:43.849Z,16.67
2017-04-01T01:29:48.795Z,16.65
2017-04-01T01:30:06.229Z,16.7
2017-04-01T01:30:20.362Z,16.66
2017-04-01T01:31:43.452Z,16.58
2017-04-01T01:31:58.787Z,16.69
2017-04-01T01:33:45.860Z,16.69
2017-04-01T01:34:28.618Z,16.58
2017-04-01T01:35:44.744Z,16.66
2017-04-01T01:36:00.431Z,16.7
2017-04-01T01:36:14.624Z,16.65
2017-04-01T01:36:30.852Z,16.66
2017-04-01T01:36:45.929Z,16.72
2017-04-01T01:38:04.138Z,16.66
2017-04-01T01:38:19.506Z,16.65
2017-04-01T01:38:58.001Z,16.73
2017-04-01T01:39:26.266Z,16.69
2017-04-01T01:40:36.153Z,16.72
2017-04-01T01:41:22.942Z,16.63
2017-04-01T01:41:37.227Z,16.67
2017-04-01T01:42:20.869Z,16.62
2017-04-01T01:43:07.168Z,16.55
2017-04-01T01:44:38.747Z,16.58
2017-04-01T01:45:23.883Z,16.66
2017-04-01T01:45:38.040Z,16.66
2017-04-01T01:46:19.153Z,16.66
2017-04-01T01:46:33.311Z,16.66
2017-04-01T01:46:47.916Z,16.63
2017-04-01T01:47:15.809Z,16.57
2017-04-01T01:47:31.168Z,16.62
2017-04-01T01:47:45.542Z,16.59
2017-04-01T01:48:30.980Z,16.52
2017-04-01T01:48:46.339Z,16.54
2017-04-01T01:49:01.847Z,16.55
2017-04-01T01:49:16.059Z,16.69
2017-04-01T01:50:11.589Z,16.52
2017-04-01T01:50:50.010Z,16.62
2017-04-01T01:51:26.664Z,16.59
2017-04-01T01:51:46.301Z,16.69
2017-04-01T01:52:11.006Z,16.63
2017-04-01T01:52:25.979Z,16.58
2017-04-01T01:52:40.160Z,16.65
2017-04-01T01:52:54.364Z,16.69
2017-04-01T01:53:08.575Z,16.69
2017-04-01T01:53:57.038Z,16.67
2017-04-01T01:55:02.198Z,16.69
2017-04-01T01:55:19.700Z,16.63
2017-04-01T01:55:34.832Z,16.67
2017-04-01T01:56:19.939Z,16.76
2017-04-01T01:56:34.203Z,16.63
2017-04-01T01:56:48.393Z,16.63
2017-04-01T01:57:02.555Z,16.66
2017-04-01T01:57:16.725Z,16.73
2017-04-01T01:57:30.962Z,16.63
2017-04-01T01:57:45.354Z,16.66
2017-04-01T01:57:59.546Z,16.77
2017-04-01T01:59:22.188Z,16.72
2017-04-01T01:59:39.819Z,16.73
2017-04-01T01:59:53.969Z,16.73
2017-04-01T02:00:08.397Z,16.74
2017-04-01T02:00:27.571Z,16.7
2017-04-01T02:00:41.653Z,16.76
2017-04-01T02:01:00.841Z,16.7
2017-04-01T02:01:14.984Z,16.76
2017-04-01T02:01:29.169Z,16.77
2017-04-01T02:01:43.345Z,16.74
2017-04-01T02:02:00.091Z,16.85
2017-04-01T02:02:14.995Z,16.76
2017-04-01T02:02:29.172Z,16.77
2017-04-01T02:02:43.297Z,16.76
2017-04-01T02:02:57.462Z,16.8
2017-04-01T02:03:11.645Z,16.8
2017-04-01T02:03:25.755Z,16.82
2017-04-01T02:03:40.185Z,16.76
2017-04-01T02:03:54.345Z,16.74
2017-04-01T02:04:12.116Z,16.76
2017-04-01T02:04:28.265Z,16.7
2017-04-01T02:04:44.694Z,16.77
2017-04-01T02:05:13.254Z,16.73
2017-04-01T02:05:58.402Z,16.73
2017-04-01T02:06:17.979Z,16.81
2017-04-01T02:07:03.487Z,16.74
2017-04-01T02:07:17.720Z,16.77
2017-04-01T02:08:20.257Z,16.73
2017-04-01T02:08:40.353Z,16.77
2017-04-01T02:08:54.578Z,16.76
2017-04-01T02:09:43.658Z,16.77
2017-04-01T02:10:03.104Z,16.7
2017-04-01T02:10:22.451Z,16.7
2017-04-01T02:10:47.519Z,16.74
2017-04-01T02:11:25.932Z,16.67
2017-04-01T02:11:40.348Z,16.8
2017-04-01T02:11:57.601Z,16.73
2017-04-01T02:12:11.772Z,16.74
2017-04-01T02:12:29.285Z,16.73
2017-04-01T02:12:59.202Z,16.7
2017-04-01T02:13:13.365Z,16.66
2017-04-01T02:13:27.513Z,16.7
2017-04-01T02:13:51.671Z,16.7
2017-04-01T02:14:08.944Z,16.69
2017-04-01T02:14:23.900Z,16.73
2017-04-01T02:14:38.020Z,16.73
2017-04-01T02:14:53.396Z,16.66
2017-04-01T02:15:07.499Z,16.73
2017-04-01T02:15:21.711Z,16.7
2017-04-01T02:15:35.891Z,16.73
2017-04-01T02:15:50.334Z,16.7
2017-04-01T02:16:15.207Z,16.73
2017-04-01T02:16:29.462Z,16.67
2017-04-01T02:16:43.587Z,16.7
2017-04-01T02:16:57.805Z,16.63
2017-04-01T02:17:12.417Z,16.74
2017-04-01T02:17:26.876Z,16.59
2017-04-01T02:17:42.232Z,16.66
2017-04-01T02:17:57.251Z,16.67
2017-04-01T02:18:42.880Z,16.7
2017-04-01T02:18:57.011Z,16.66
2017-04-01T02:19:11.360Z,16.59
2017-04-01T02:19:37.307Z,16.63
2017-04-01T02:19:51.494Z,16.67
2017-04-01T02:20:07.628Z,16.63
2017-04-01T02:20:50.150Z,16.62
2017-04-01T02:21:12.809Z,16.58
2017-04-01T02:21:27.016Z,16.67
2017-04-01T02:21:41.351Z,16.62
2017-04-01T02:21:55.469Z,16.55
2017-04-01T02:22:09.876Z,16.65
2017-04-01T02:22:24.293Z,16.66
2017-04-01T02:22:38.517Z,16.65
2017-04-01T02:22:52.728Z,16.63
2017-04-01T02:23:06.971Z,16.58
2017-04-01T02:23:21.192Z,16.67
2017-04-01T02:23:35.331Z,16.65
2017-04-01T02:23:49.505Z,16.65
2017-04-01T02:24:03.701Z,16.59
2017-04-01T02:24:17.859Z,16.66
2017-04-01T02:24:32.053Z,16.66
2017-04-01T02:24:56.674Z,16.66
2017-04-01T02:25:10.836Z,16.55
2017-04-01T02:25:26.435Z,16.65
2017-04-01T02:26:19.106Z,16.63
2017-04-01T02:26:49.906Z,16.57
2017-04-01T02:27:04.156Z,16.65
2017-04-01T02:27:18.415Z,16.52
2017-04-01T02:27:34.663Z,16.55
2017-04-01T02:27:48.870Z,16.58
2017-04-01T02:28:03.011Z,16.52
2017-04-01T02:28:17.416Z,16.57
2017-04-01T02:28:31.793Z,16.55
2017-04-01T02:28:47.492Z,16.57
2017-04-01T02:29:01.783Z,16.54
2017-04-01T02:29:17.631Z,16.54
2017-04-01T02:29:33.228Z,16.55
2017-04-01T02:29:47.378Z,16.52
2017-04-01T02:30:01.582Z,16.57
2017-04-01T02:30:16.093Z,16.55
2017-04-01T02:30:30.299Z,16.45
2017-04-01T02:30:47.958Z,16.54
2017-04-01T02:31:02.202Z,16.57
2017-04-01T02:31:17.055Z,16.52
2017-04-01T02:31:32.029Z,16.52
2017-04-01T02:31:47.533Z,16.58
2017-04-01T02:32:03.945Z,16.48
2017-04-01T02:32:18.157Z,16.51
2017-04-01T02:32:35.373Z,16.42
2017-04-01T02:32:49.522Z,16.57
2017-04-01T02:33:06.790Z,16.47
2017-04-01T02:33:40.236Z,16.58
2017-04-01T02:33:55.144Z,16.57
2017-04-01T02:34:09.292Z,16.59
2017-04-01T02:34:23.509Z,16.45
2017-04-01T02:34:37.681Z,16.57
2017-04-01T02:35:05.038Z,16.45
2017-04-01T02:35:40.141Z,16.42
2017-04-01T02:35:54.386Z,16.44
2017-04-01T02:36:08.610Z,16.44
2017-04-01T02:36:22.842Z,16.45
2017-04-01T02:36:40.901Z,16.47
2017-04-01T02:36:56.505Z,16.49
2017-04-01T02:37:11.009Z,16.51
2017-04-01T02:37:25.173Z,16.49
2017-04-01T02:37:40.557Z,16.51
2017-04-01T02:37:54.687Z,16.45
2017-04-01T02:38:08.887Z,16.47
2017-04-01T02:38:23.139Z,16.4
2017-04-01T02:38:37.980Z,16.49
2017-04-01T02:38:52.450Z,16.44
2017-04-01T02:39:06.663Z,16.44
2017-04-01T02:39:20.819Z,16.42
2017-04-01T02:39:34.971Z,16.47
2017-04-01T02:39:49.133Z,16.44
2017-04-01T02:40:03.987Z,16.4
2017-04-01T02:40:18.139Z,16.45
2017-04-01T02:40:32.569Z,16.45
2017-04-01T02:40:46.667Z,16.45
2017-04-01T02:41:01.695Z,16.39
2017-04-01T02:41:16.523Z,16.37
2017-04-01T02:41:30.704Z,16.39
2017-04-01T02:41:45.564Z,16.34
2017-04-01T02:42:56.109Z,16.39
2017-04-01T02:43:11.508Z,16.34
2017-04-01T02:43:25.707Z,16.3
2017-04-01T02:43:50.170Z,16.34
2017-04-01T02:44:09.528Z,16.29
2017-04-01T02:44:25.740Z,16.36
2017-04-01T02:44:40.045Z,16.33
2017-04-01T02:44:54.262Z,16.27
2017-04-01T02:45:09.241Z,16.42
2017-04-01T02:45:25.111Z,16.3
2017-04-01T02:45:39.457Z,16.39
2017-04-01T02:45:53.614Z,16.42
2017-04-01T02:46:14.010Z,16.44
2017-04-01T02:46:28.237Z,16.4
2017-04-01T02:46:42.423Z,16.39
2017-04-01T02:46:56.514Z,16.42
2017-04-01T02:47:12.097Z,16.45
2017-04-01T02:47:27.003Z,16.4
2017-04-01T02:47:41.154Z,16.45
2017-04-01T02:47:55.287Z,16.45
2017-04-01T02:48:10.952Z,16.4
2017-04-01T02:48:25.971Z,16.47
2017-04-01T02:48:40.754Z,16.52
2017-04-01T02:48:55.691Z,16.47
2017-04-01T02:49:12.101Z,16.51
2017-04-01T02:49:27.027Z,16.45
2017-04-01T02:49:41.159Z,16.47
2017-04-01T02:49:57.800Z,16.47
2017-04-01T02:50:13.420Z,16.44
2017-04-01T02:50:27.632Z,16.51
2017-04-01T02:50:41.879Z,16.48
2017-04-01T02:51:01.903Z,16.42
2017-04-01T02:51:16.310Z,16.48
2017-04-01T02:51:30.568Z,16.49
2017-04-01T02:51:45.753Z,16.4
2017-04-01T02:51:59.976Z,16.47
2017-04-01T02:52:14.164Z,16.49
2017-04-01T02:52:28.404Z,16.47
2017-04-01T02:52:42.959Z,16.49
2017-04-01T02:52:57.810Z,16.39
2017-04-01T02:53:12.267Z,16.47
2017-04-01T02:53:26.390Z,16.48
2017-04-01T02:53:40.596Z,16.45
2017-04-01T02:53:55.049Z,16.48
2017-04-01T02:54:09.194Z,16.42
2017-04-01T02:54:23.403Z,16.44
2017-04-01T02:54:38.181Z,16.48
2017-04-01T02:54:52.345Z,16.45
2017-04-01T02:55:07.558Z,16.4
2017-04-01T02:55:21.755Z,16.44
2017-04-01T02:55:35.977Z,16.42
2017-04-01T02:55:50.141Z,16.42
2017-04-01T02:56:04.571Z,16.42
2017-04-01T02:56:22.605Z,16.4
2017-04-01T02:56:37.429Z,16.4
2017-04-01T02:56:51.606Z,16.45
2017-04-01T02:57:05.825Z,16.44
2017-04-01T02:57:20.142Z,16.4
2017-04-01T02:57:34.373Z,16.51
2017-04-01T02:57:48.561Z,16.4
2017-04-01T02:58:03.497Z,16.47
2017-04-01T02:58:17.729Z,16.45
2017-04-01T02:58:31.839Z,16.4
2017-04-01T02:58:46.011Z,16.42
2017-04-01T02:59:00.154Z,16.4
2017-04-01T02:59:14.319Z,16.47
2017-04-01T02:59:29.942Z,16.4
2017-04-01T02:59:44.047Z,16.39
2017-04-01T02:59:58.223Z,16.44
2017-04-01T03:00:12.371Z,16.48
2017-04-01T03:00:26.533Z,16.42
2017-04-01T03:00:40.723Z,16.47
2017-04-01T03:00:54.939Z,16.36
2017-04-01T03:01:09.053Z,16.37
2017-04-01T03:01:23.218Z,16.34
2017-04-01T03:01:37.310Z,16.33
2017-04-01T03:01:51.454Z,16.42
2017-04-01T03:02:05.606Z,16.36
2017-04-01T03:02:19.757Z,16.3
2017-04-01T03:02:33.907Z,16.34
2017-04-01T03:02:48.037Z,16.33
2017-04-01T03:03:02.163Z,16.27
2017-04-01T03:03:16.249Z,16.32
2017-04-01T03:03:30.416Z,16.34
2017-04-01T03:03:44.576Z,16.3
2017-04-01T03:03:58.750Z,16.29
2017-04-01T03:04:12.869Z,16.33
2017-04-01T03:04:27.032Z,16.34
2017-04-01T03:04:41.161Z,16.29
2017-04-01T03:04:55.318Z,16.29
2017-04-01T03:05:09.519Z,16.39
2017-04-01T03:05:23.610Z,16.3
2017-04-01T03:05:37.756Z,16.3
2017-04-01T03:05:51.865Z,16.33
2017-04-01T03:06:06.037Z,16.3
2017-04-01T03:06:20.179Z,16.34
2017-04-01T03:06:34.326Z,16.37
2017-04-01T03:06:48.416Z,16.34
2017-04-01T03:07:02.494Z,16.33
2017-04-01T03:07:16.639Z,16.36
2017-04-01T03:07:30.824Z,16.33
2017-04-01T03:07:44.994Z,16.26
2017-04-01T03:07:59.385Z,16.3
2017-04-01T03:08:13.590Z,16.29
2017-04-01T03:08:27.743Z,16.36
2017-04-01T03:08:41.861Z,16.29
2017-04-01T03:08:55.988Z,16.22
2017-04-01T03:09:10.210Z,16.27
2017-04-01T03:09:24.337Z,16.26
2017-04-01T03:09:38.436Z,16.27
2017-04-01T03:09:52.565Z,16.29
2017-04-01T03:10:06.734Z,16.29
2017-04-01T03:10:20.869Z,16.27
2017-04-01T03:10:35.316Z,16.29
2017-04-01T03:10:49.546Z,16.32
2017-04-01T03:11:03.730Z,16.32
2017-04-01T03:11:17.880Z,16.21
2017-04-01T03:11:32.053Z,16.27
2017-04-01T03:11:46.232Z,16.22
2017-04-01T03:12:00.327Z,16.17
2017-04-01T03:12:14.447Z,16.22
2017-04-01T03:12:28.564Z,16.25
2017-04-01T03:12:42.719Z,16.14
2017-04-01T03:12:56.876Z,16.16
2017-04-01T03:13:10.994Z,16.25
2017-04-01T03:13:25.166Z,16.17
2017-04-01T03:13:39.365Z,16.21
2017-04-01T03:13:53.485Z,16.14
2017-04-01T03:14:07.643Z,16.21
2017-04-01T03:14:21.784Z,16.21
2017-04-01T03:14:35.917Z,16.21
2017-04-01T03:14:50.077Z,16.1
2017-04-01T03:15:04.171Z,16.14
2017-04-01T03:15:19.165Z,16.14
2017-04-01T03:15:33.260Z,16.16
2017-04-01T03:15:47.654Z,16.13
2017-04-01T03:16:01.748Z,16.14
2017-04-01T03:16:15.915Z,16.18
2017-04-01T03:16:30.120Z,16.14
2017-04-01T03:16:49.590Z,16.18
2017-04-01T03:17:03.862Z,16.11
2017-04-01T03:17:18.107Z,16.17
2017-04-01T03:17:32.361Z,16.17
2017-04-01T03:17:46.531Z,16.13
2017-04-01T03:18:00.826Z,16.17
2017-04-01T03:18:15.023Z,16.22
2017-04-01T03:18:29.184Z,16.18
2017-04-01T03:18:44.106Z,16.17
2017-04-01T03:19:00.073Z,16.21
2017-04-01T03:19:14.467Z,16.21
2017-04-01T03:19:28.631Z,16.18
2017-04-01T03:19:42.800Z,16.17
2017-04-01T03:19:57.015Z,16.21
2017-04-01T03:20:11.176Z,16.18
2017-04-01T03:20:25.347Z,16.17
2017-04-01T03:21:07.658Z,16.1
2017-04-01T03:21:21.889Z,16.16
2017-04-01T03:21:36.086Z,16.17
2017-04-01T03:21:50.248Z,16.1
2017-04-01T03:22:05.246Z,16.11
2017-04-01T03:22:19.471Z,16.1
2017-04-01T03:22:33.588Z,16.11
2017-04-01T03:22:48.097Z,16.08
2017-04-01T03:23:02.477Z,16.13
2017-04-01T03:23:16.583Z,16.1
2017-04-01T03:23:30.797Z,16.02
2017-04-01T03:23:45.014Z,16.1
2017-04-01T03:23:59.087Z,15.98
2017-04-01T03:24:13.221Z,16.11
2017-04-01T03:24:27.340Z,16.07
2017-04-01T03:24:41.521Z,16.11
2017-04-01T03:24:55.681Z,16
2017-04-01T03:25:09.828Z,16.04
2017-04-01T03:25:23.875Z,16.04
2017-04-01T03:25:38.117Z,15.99
2017-04-01T03:25:52.506Z,16.04
2017-04-01T03:26:06.802Z,16.07
2017-04-01T03:26:21.154Z,16.06
2017-04-01T03:26:35.333Z,15.99
2017-04-01T03:26:49.664Z,16
2017-04-01T03:27:03.826Z,16
2017-04-01T03:27:18.094Z,16.06
2017-04-01T03:27:32.264Z,16.02
2017-04-01T03:27:46.572Z,16.06
2017-04-01T03:28:00.851Z,16.11
2017-04-01T03:28:15.078Z,16.04
2017-04-01T03:28:29.501Z,16.04
2017-04-01T03:28:43.757Z,16
2017-04-01T03:28:58.332Z,16.02
2017-04-01T03:29:12.584Z,16.11
2017-04-01T03:29:26.875Z,16.04
2017-04-01T03:29:41.178Z,16.06
2017-04-01T03:29:55.299Z,16.07
2017-04-01T03:30:09.515Z,16.08
2017-04-01T03:30:23.778Z,16.02
2017-04-01T03:30:38.093Z,16.06
2017-04-01T03:30:52.413Z,16.1
2017-04-01T03:31:06.758Z,16.02
2017-04-01T03:31:21.009Z,16.02
2017-04-01T03:31:35.230Z,15.99
2017-04-01T03:31:49.440Z,15.99
2017-04-01T03:32:03.678Z,16.04
2017-04-01T03:32:17.960Z,16.02
2017-04-01T03:32:32.237Z,16.1
2017-04-01T03:32:46.489Z,15.95
2017-04-01T03:33:00.676Z,16.02
2017-04-01T03:33:14.954Z,15.98
2017-04-01T03:33:29.356Z,16.02
2017-04-01T03:33:43.690Z,16.07
2017-04-01T03:33:57.968Z,16.02
2017-04-01T03:34:12.129Z,16.02
2017-04-01T03:34:26.407Z,15.99
2017-04-01T03:34:40.668Z,16.04
2017-04-01T03:34:54.921Z,16
2017-04-01T03:35:09.249Z,16.04
2017-04-01T03:35:23.553Z,16.02
2017-04-01T03:35:37.767Z,16.06
2017-04-01T03:35:52.104Z,16.06
2017-04-01T03:36:06.558Z,16.04
2017-04-01T03:36:20.794Z,15.98
2017-04-01T03:36:35.246Z,16.02
2017-04-01T03:36:49.452Z,16.07
2017-04-01T03:37:03.799Z,16
2017-04-01T03:37:18.124Z,16.04
2017-04-01T03:37:32.376Z,15.98
2017-04-01T03:37:46.626Z,15.99
2017-04-01T03:38:00.860Z,15.96
2017-04-01T03:38:15.340Z,16.02
2017-04-01T03:38:29.685Z,16.04
2017-04-01T03:38:43.996Z,15.99
2017-04-01T03:38:58.218Z,15.95
2017-04-01T03:39:12.480Z,16.02
2017-04-01T03:39:26.644Z,16.04
2017-04-01T03:39:41.020Z,16.02
2017-04-01T03:39:55.199Z,15.98
2017-04-01T03:40:09.395Z,16.02
2017-04-01T03:40:23.653Z,16.02
2017-04-01T03:40:38.006Z,16.02
2017-04-01T03:40:52.185Z,16.1
2017-04-01T03:41:06.457Z,16
2017-04-01T03:41:20.748Z,16
2017-04-01T03:41:35.076Z,16.06
2017-04-01T03:41:49.302Z,16
2017-04-01T03:42:03.512Z,16.02
2017-04-01T03:42:17.600Z,16.08
2017-04-01T03:42:31.766Z,16.04
2017-04-01T03:42:46.030Z,15.98
2017-04-01T03:43:00.266Z,16.02
2017-04-01T03:43:14.531Z,16.06
2017-04-01T03:43:28.739Z,15.98
2017-04-01T03:43:42.972Z,15.98
2017-04-01T03:43:57.203Z,16.02
2017-04-01T03:44:11.502Z,16
2017-04-01T03:44:25.816Z,16
2017-04-01T03:44:40.152Z,16
2017-04-01T03:44:54.446Z,15.99
2017-04-01T03:45:08.704Z,16.02
2017-04-01T03:45:23.059Z,16.07
2017-04-01T03:45:37.343Z,15.99
2017-04-01T03:45:51.574Z,15.96